Time;durP1;ratioP1;P1;durP2;ratioP2;P2;SDS_P1;SDS_P2;PMS_P1;PMS_P2;Temp;Humidity;BMP_temperature;BMP_pressure;BME280_temperature;BME280_humidity;BME280_pressure;Samples;Min_cycle;Max_cycle;Signal;HPM_P1;HPM_P2
2022/10/23 00:01:41;;;;;;;0.10;0.10;;;12.40;99.90;11.40;97407.00;;;;5122323;27;20250;-74
2022/10/23 00:04:13;;;;;;;0.10;0.10;;;12.40;99.90;11.40;97412.00;;;;5111400;28;20249;-74
2022/10/23 00:06:42;;;;;;;0.10;0.10;;;12.40;99.90;11.40;97406.00;;;;5110826;27;20263;-74
2022/10/23 00:09:15;;;;;;;0.00;0.00;;;12.30;99.90;11.40;97408.00;;;;5117416;27;20192;-74
2022/10/23 00:11:46;;;;;;;0.10;0.10;;;12.40;99.90;11.40;97401.00;;;;5113365;28;20730;-74
2022/10/23 00:14:17;;;;;;;0.00;0.00;;;12.40;99.90;11.40;97406.00;;;;5113730;27;20192;-74
2022/10/23 00:16:45;;;;;;;0.10;0.10;;;12.40;99.90;11.40;97406.00;;;;5119503;27;20292;-74
2022/10/23 00:19:13;;;;;;;0.10;0.10;;;12.30;99.90;11.40;97404.00;;;;5111917;27;20189;-74
2022/10/23 00:21:41;;;;;;;0.10;0.10;;;12.30;99.90;11.40;97398.00;;;;5091380;28;20234;-74
2022/10/23 00:24:09;;;;;;;0.10;0.10;;;12.30;99.90;11.40;97414.00;;;;5110529;27;20669;-74
2022/10/23 00:26:39;;;;;;;0.10;0.10;;;12.20;99.90;11.40;97406.00;;;;5116052;27;20207;-75
2022/10/23 00:29:10;;;;;;;0.08;0.08;;;12.30;99.90;11.40;97351.00;;;;5106228;27;20189;-75
2022/10/23 00:31:38;;;;;;;0.10;0.10;;;12.30;99.90;11.30;97413.00;;;;5091409;28;20181;-74
2022/10/23 00:34:07;;;;;;;0.10;0.10;;;12.20;99.90;11.40;97407.00;;;;5103091;28;20197;-74
2022/10/23 00:36:42;;;;;;;0.10;0.10;;;12.30;99.90;11.30;97397.00;;;;5111625;28;20223;-74
2022/10/23 00:39:10;;;;;;;0.10;0.10;;;12.20;99.90;11.20;97402.00;;;;5101947;28;20246;-75
2022/10/23 00:41:39;;;;;;;0.00;0.00;;;12.20;99.90;11.10;97395.00;;;;5090685;28;20205;-75
2022/10/23 00:44:30;;;;;;;0.10;0.10;;;12.10;99.90;11.10;97397.00;;;;5091570;28;20193;-74
2022/10/23 00:47:00;;;;;;;0.10;0.10;;;12.00;99.90;11.00;97396.00;;;;5116311;27;20617;-74
2022/10/23 00:49:28;;;;;;;0.00;0.00;;;12.00;99.90;11.10;97393.00;;;;5105178;28;20205;-75
2022/10/23 00:52:04;;;;;;;0.10;0.10;;;12.00;99.90;11.10;97405.00;;;;5107828;28;20196;-75
2022/10/23 00:54:38;;;;;;;0.10;0.10;;;12.10;99.90;11.20;97401.00;;;;5117377;28;20206;-74
2022/10/23 00:57:12;;;;;;;0.10;0.10;;;12.20;99.90;11.20;97398.00;;;;5127944;28;20276;-75
2022/10/23 00:59:41;;;;;;;0.10;0.10;;;12.20;99.90;11.10;97385.00;;;;5107655;28;20237;-75
2022/10/23 01:02:10;;;;;;;0.10;0.10;;;12.10;99.90;11.20;97394.00;;;;5123848;28;20179;-75
2022/10/23 01:04:39;;;;;;;0.00;0.00;;;12.20;99.90;11.00;97403.00;;;;5133220;28;20226;-75
2022/10/23 01:07:19;;;;;;;0.10;0.10;;;12.10;99.90;11.00;97384.00;;;;5109548;28;20213;-74
2022/10/23 01:09:59;;;;;;;0.10;0.10;;;12.00;99.90;10.90;97400.00;;;;5118858;27;20203;-74
2022/10/23 01:12:35;;;;;;;0.00;0.00;;;12.00;99.90;10.90;97399.00;;;;5115226;27;20188;-74
2022/10/23 01:15:14;;;;;;;0.10;0.10;;;12.00;99.90;10.90;97389.00;;;;5110636;27;20196;-74
2022/10/23 01:17:55;;;;;;;0.10;0.10;;;12.00;99.90;10.90;97410.00;;;;5121326;27;20222;-74
2022/10/23 01:20:40;;;;;;;0.10;0.10;;;12.00;99.90;11.00;97378.00;;;;5095786;28;20746;-74
2022/10/23 01:23:29;;;;;;;0.10;0.10;;;12.00;99.90;10.90;97394.00;;;;5121851;27;20646;-75
2022/10/23 01:26:44;;;;;;;0.10;0.10;;;12.00;99.90;10.90;97390.00;;;;5121134;27;20204;-74
2022/10/23 01:29:23;;;;;;;0.10;0.10;;;11.90;99.90;11.00;97375.00;;;;5125264;27;20649;-76
2022/10/23 01:32:01;;;;;;;0.10;0.10;;;12.00;99.90;10.90;97316.00;;;;5117321;28;20198;-76
2022/10/23 01:34:40;;;;;;;0.10;0.10;;;11.90;99.90;10.70;97377.00;;;;5115374;27;20196;-76
2022/10/23 01:37:15;;;;;;;0.10;0.10;;;11.70;99.90;10.70;97390.00;;;;5124113;27;20216;-75
2022/10/23 01:39:51;;;;;;;0.10;0.10;;;11.70;99.90;10.60;97379.00;;;;5139269;27;20305;-75
2022/10/23 01:42:27;;;;;;;0.10;0.10;;;11.60;99.90;10.50;97388.00;;;;5123961;28;20195;-75
2022/10/23 01:45:02;;;;;;;0.08;0.08;;;11.60;99.90;10.50;97378.00;;;;5122671;27;20226;-74
2022/10/23 01:47:41;;;;;;;0.10;0.10;;;11.50;99.90;10.50;97381.00;;;;5116556;27;20226;-76
2022/10/23 01:50:15;;;;;;;0.10;0.10;;;11.50;99.90;10.50;97385.00;;;;5129592;27;20666;-75
2022/10/23 01:52:46;;;;;;;0.10;0.10;;;11.50;99.90;10.50;97389.00;;;;5135306;27;20198;-74
2022/10/23 01:55:17;;;;;;;0.10;0.10;;;11.50;99.90;10.60;97393.00;;;;5118914;27;20612;-75
2022/10/23 01:57:47;;;;;;;0.10;0.10;;;11.50;99.90;10.60;97370.00;;;;5118891;27;20220;-74
2022/10/23 02:00:19;;;;;;;0.10;0.10;;;11.50;99.90;10.60;97352.00;;;;5135878;27;20219;-75
2022/10/23 02:02:54;;;;;;;0.10;0.10;;;11.50;99.90;10.60;97370.00;;;;5118894;27;20233;-74
2022/10/23 02:05:31;;;;;;;0.10;0.10;;;11.50;99.90;10.60;97359.00;;;;5117699;27;20192;-74
2022/10/23 02:08:02;;;;;;;0.10;0.10;;;11.50;99.90;10.60;97359.00;;;;5110708;27;20212;-75
2022/10/23 02:10:41;;;;;;;0.10;0.10;;;11.60;99.90;10.70;97365.00;;;;5099466;27;20188;-75
2022/10/23 02:13:16;;;;;;;0.10;0.10;;;11.60;99.90;10.70;97365.00;;;;5118375;27;20200;-73
2022/10/23 02:15:50;;;;;;;0.00;0.00;;;11.60;99.90;10.70;97369.00;;;;5117951;27;20199;-72
2022/10/23 02:18:34;;;;;;;0.10;0.10;;;11.70;99.90;10.70;97352.00;;;;5117551;27;20623;-74
2022/10/23 02:21:10;;;;;;;0.10;0.10;;;11.70;99.90;10.70;97357.00;;;;5107278;27;20258;-75
2022/10/23 02:23:49;;;;;;;0.10;0.10;;;11.70;99.90;10.70;97352.00;;;;5113605;27;20627;-74
2022/10/23 02:26:29;;;;;;;0.10;0.10;;;11.60;99.90;10.60;97361.00;;;;5122735;27;20655;-74
2022/10/23 02:29:07;;;;;;;0.03;0.03;;;11.60;99.90;10.60;97356.00;;;;5098719;28;20197;-74
2022/10/23 02:31:38;;;;;;;0.10;0.10;;;11.60;99.90;10.70;97348.00;;;;5111213;27;20195;-74
2022/10/23 02:34:06;;;;;;;0.10;0.10;;;11.70;99.90;10.70;97343.00;;;;5112670;28;20291;-73
2022/10/23 02:36:34;;;;;;;0.10;0.10;;;11.70;99.90;10.60;97354.00;;;;5118490;27;20211;-73
2022/10/23 02:39:04;;;;;;;0.10;0.10;;;11.60;99.90;10.60;97333.00;;;;5123322;27;20279;-73
2022/10/23 02:41:46;;;;;;;0.10;0.10;;;11.50;99.90;10.60;97323.00;;;;5126403;27;20200;-74
2022/10/23 02:44:41;;;;;;;0.08;0.08;;;11.60;99.90;10.60;97323.00;;;;5124995;27;20208;-74
2022/10/23 02:47:28;;;;;;;0.10;0.10;;;11.60;99.90;10.60;97321.00;;;;5111605;27;20216;-74
2022/10/23 02:50:10;;;;;;;0.10;0.10;;;11.50;99.90;10.70;97315.00;;;;5115747;27;20187;-74
2022/10/23 02:52:52;;;;;;;0.10;0.10;;;11.60;99.90;10.70;97318.00;;;;5105463;27;20241;-74
2022/10/23 02:55:37;;;;;;;0.10;0.10;;;11.70;99.90;10.70;97310.00;;;;5121240;27;20275;-74
2022/10/23 02:58:18;;;;;;;0.10;0.10;;;11.60;99.90;10.70;97317.00;;;;5119472;27;20223;-74
2022/10/23 03:00:56;;;;;;;0.10;0.10;;;11.60;99.90;10.70;97331.00;;;;5106841;27;20223;-74
2022/10/23 03:03:31;;;;;;;0.10;0.10;;;11.60;99.90;10.60;97330.00;;;;5110590;28;20199;-74
2022/10/23 03:06:00;;;;;;;0.10;0.10;;;11.50;99.90;10.60;97331.00;;;;5124344;27;20666;-74
2022/10/23 03:08:28;;;;;;;0.03;0.03;;;11.50;99.90;10.60;97330.00;;;;5108060;28;20662;-73
2022/10/23 03:10:56;;;;;;;0.05;0.05;;;11.50;99.90;10.50;97331.00;;;;5133882;27;20239;-74
2022/10/23 03:13:28;;;;;;;0.10;0.10;;;11.40;99.90;10.40;97328.00;;;;5121592;27;20196;-73
2022/10/23 03:15:56;;;;;;;0.10;0.10;;;11.40;99.90;10.40;97326.00;;;;5112580;27;20253;-73
2022/10/23 03:18:28;;;;;;;0.10;0.10;;;11.40;99.90;10.40;97320.00;;;;5104297;28;20263;-74
2022/10/23 03:20:59;;;;;;;0.10;0.10;;;11.40;99.90;10.40;97319.00;;;;5093408;28;20262;-74
2022/10/23 03:23:27;;;;;;;0.10;0.10;;;11.30;99.90;10.40;97324.00;;;;5113445;28;20542;-74
2022/10/23 03:25:55;;;;;;;0.10;0.10;;;11.40;99.90;10.40;97312.00;;;;5132652;27;20287;-74
2022/10/23 03:28:34;;;;;;;0.10;0.10;;;11.30;99.90;10.30;97315.00;;;;5124549;27;20228;-74
2022/10/23 03:31:02;;;;;;;0.10;0.10;;;11.30;99.90;10.30;97317.00;;;;5126143;27;20197;-74
2022/10/23 03:33:33;;;;;;;0.10;0.10;;;11.20;99.90;10.30;97319.00;;;;5097047;28;20279;-74
2022/10/23 03:36:12;;;;;;;0.10;0.10;;;11.20;99.90;10.30;97324.00;;;;5109729;28;20202;-74
2022/10/23 03:38:40;;;;;;;0.10;0.10;;;11.20;99.90;10.20;97318.00;;;;5121414;27;20207;-75
2022/10/23 03:41:10;;;;;;;0.10;0.10;;;11.20;99.90;10.20;97310.00;;;;5122132;27;20536;-75
2022/10/23 03:43:39;;;;;;;0.10;0.10;;;11.10;99.90;10.20;97317.00;;;;5095401;27;20193;-74
2022/10/23 03:46:11;;;;;;;0.00;0.00;;;11.10;99.90;10.20;97327.00;;;;5100188;27;20263;-74
2022/10/23 03:48:40;;;;;;;0.00;0.00;;;11.10;99.90;10.10;97324.00;;;;5124199;27;20694;-74
2022/10/23 03:51:09;;;;;;;0.10;0.10;;;11.10;99.90;10.10;97319.00;;;;5107043;27;20192;-74
2022/10/23 03:53:40;;;;;;;0.10;0.10;;;11.10;99.90;10.10;97320.00;;;;5108425;27;20195;-74
2022/10/23 03:56:08;;;;;;;0.00;0.00;;;11.00;99.90;10.10;97324.00;;;;5109395;27;20200;-74
2022/10/23 03:58:36;;;;;;;0.10;0.10;;;11.00;99.90;10.10;97321.00;;;;5118221;27;20235;-73
2022/10/23 04:01:05;;;;;;;0.10;0.10;;;11.00;99.90;10.10;97314.00;;;;5112342;27;20199;-74
2022/10/23 04:03:33;;;;;;;0.10;0.10;;;11.00;99.90;10.00;97323.00;;;;5107361;27;20205;-74
2022/10/23 04:06:02;;;;;;;0.10;0.10;;;11.00;99.90;10.00;97319.00;;;;5099962;27;20647;-74
2022/10/23 04:08:31;;;;;;;0.10;0.10;;;11.00;99.90;10.00;97310.00;;;;5108913;27;20266;-74
2022/10/23 04:11:00;;;;;;;0.10;0.10;;;10.90;99.90;10.00;97314.00;;;;5113298;27;20533;-74
2022/10/23 04:13:41;;;;;;;0.10;0.10;;;10.90;99.90;10.00;97312.00;;;;5113501;27;20215;-75
2022/10/23 04:16:09;;;;;;;0.10;0.10;;;10.90;99.90;9.90;97268.00;;;;5112321;27;20196;-77
2022/10/23 04:18:40;;;;;;;0.10;0.10;;;10.90;99.90;9.90;97313.00;;;;5108160;27;20250;-76
2022/10/23 04:21:11;;;;;;;0.10;0.10;;;10.90;99.90;9.90;97247.00;;;;5134864;27;20225;-77
2022/10/23 04:23:39;;;;;;;0.10;0.10;;;10.90;99.90;9.90;97319.00;;;;5122028;27;20203;-77
2022/10/23 04:26:13;;;;;;;0.10;0.10;;;10.90;99.90;9.90;97324.00;;;;5114187;28;20226;-76
2022/10/23 04:28:41;;;;;;;0.10;0.10;;;10.80;99.90;9.90;97323.00;;;;5101664;27;20248;-76
2022/10/23 04:31:10;;;;;;;0.10;0.10;;;10.80;99.90;9.90;97316.00;;;;5120378;27;20615;-77
2022/10/23 04:33:41;;;;;;;0.10;0.10;;;10.90;99.90;9.90;97315.00;;;;5112937;28;20226;-76
2022/10/23 04:36:10;;;;;;;0.10;0.10;;;10.90;99.90;9.90;97309.00;;;;5111024;28;20197;-77
2022/10/23 04:38:40;;;;;;;0.10;0.10;;;10.90;99.90;10.00;97311.00;;;;5132832;27;20224;-76
2022/10/23 04:41:08;;;;;;;0.10;0.10;;;10.90;99.90;10.00;97313.00;;;;5122523;28;20196;-76
2022/10/23 04:43:37;;;;;;;0.10;0.10;;;10.90;99.90;10.10;97314.00;;;;5114280;28;20188;-76
2022/10/23 04:46:06;;;;;;;0.10;0.10;;;11.00;99.90;10.00;97314.00;;;;5141729;27;20204;-76
2022/10/23 04:48:34;;;;;;;0.10;0.10;;;11.00;99.90;10.00;97335.00;;;;5106834;27;20564;-76
2022/10/23 04:51:28;;;;;;;0.10;0.10;;;10.90;99.90;10.00;97329.00;;;;5118275;27;20279;-76
2022/10/23 04:54:02;;;;;;;0.10;0.10;;;10.90;99.90;10.00;97326.00;;;;5114594;28;20658;-76
2022/10/23 04:56:42;;;;;;;0.10;0.10;;;10.90;99.90;10.00;97317.00;;;;5120188;27;20206;-76
2022/10/23 04:59:19;;;;;;;0.10;0.10;;;10.90;99.90;10.00;97316.00;;;;5113964;27;20216;-74
2022/10/23 05:01:47;;;;;;;0.10;0.10;;;10.90;99.90;10.00;97311.00;;;;5114135;27;20196;-74
2022/10/23 05:04:16;;;;;;;0.10;0.10;;;10.90;99.90;10.00;97322.00;;;;5137844;27;20211;-76
2022/10/23 05:07:08;;;;;;;0.10;0.10;;;10.90;99.90;10.00;97326.00;;;;5100197;28;20281;-76
2022/10/23 05:09:59;;;;;;;0.10;0.10;;;10.90;99.90;10.00;97324.00;;;;5125410;27;20273;-76
2022/10/23 05:12:35;;;;;;;0.10;0.10;;;10.90;99.90;10.10;97319.00;;;;5138628;27;20227;-77
2022/10/23 05:15:05;;;;;;;0.10;0.10;;;11.00;99.90;10.10;97305.00;;;;5127507;27;20200;-74
2022/10/23 05:17:39;;;;;;;0.10;0.10;;;11.00;99.90;10.10;97308.00;;;;5120326;27;20220;-75
2022/10/23 05:20:14;;;;;;;0.10;0.10;;;11.10;99.90;10.10;97311.00;;;;5140483;27;20202;-74
2022/10/23 05:22:46;;;;;;;0.10;0.10;;;11.10;99.90;10.10;97314.00;;;;5113785;28;20195;-74
2022/10/23 05:25:14;;;;;;;0.10;0.10;;;11.10;99.90;10.20;97312.00;;;;5137661;27;20283;-74
2022/10/23 05:27:48;;;;;;;0.10;0.10;;;11.10;99.90;10.20;97309.00;;;;5123661;27;20240;-74
2022/10/23 05:30:17;;;;;;;0.10;0.10;;;11.10;99.90;10.30;97315.00;;;;5133266;27;20200;-75
2022/10/23 05:32:45;;;;;;;0.10;0.10;;;11.20;99.90;10.30;97314.00;;;;5124728;27;20212;-73
2022/10/23 05:35:19;;;;;;;0.10;0.10;;;11.20;99.90;10.30;97316.00;;;;5114968;27;20536;-75
2022/10/23 05:37:53;;;;;;;0.10;0.10;;;11.20;99.90;10.20;97313.00;;;;5121056;27;20214;-76
2022/10/23 05:40:24;;;;;;;0.10;0.10;;;11.20;99.90;10.30;97295.00;;;;5110514;28;20191;-75
2022/10/23 05:43:04;;;;;;;0.10;0.10;;;11.20;99.90;10.30;97304.00;;;;5127282;27;20253;-75
2022/10/23 05:45:50;;;;;;;0.10;0.10;;;11.20;99.90;10.30;97307.00;;;;5132652;27;20299;-76
2022/10/23 05:48:41;;;;;;;0.10;0.10;;;11.30;99.90;10.30;97323.00;;;;5127681;27;20641;-75
2022/10/23 05:51:28;;;;;;;0.08;0.08;;;11.20;99.90;10.30;97328.00;;;;5116554;27;20261;-75
2022/10/23 05:54:17;;;;;;;0.10;0.10;;;11.30;99.90;10.30;97340.00;;;;5119215;28;20231;-73
2022/10/23 05:56:56;;;;;;;0.10;0.10;;;11.20;99.90;10.30;97343.00;;;;5125421;27;20247;-73
2022/10/23 05:59:43;;;;;;;0.10;0.10;;;11.20;99.90;10.30;97337.00;;;;5110638;28;20219;-76
2022/10/23 06:02:21;;;;;;;0.10;0.10;;;11.20;99.90;10.40;97329.00;;;;5112408;27;20200;-75
2022/10/23 06:04:55;;;;;;;0.10;0.10;;;11.30;99.90;10.40;97329.00;;;;5132795;27;20767;-76
2022/10/23 06:07:47;;;;;;;0.10;0.10;;;11.30;99.90;10.40;97330.00;;;;5122966;27;20216;-77
2022/10/23 06:10:16;;;;;;;0.10;0.10;;;11.30;99.90;10.40;97329.00;;;;5109132;27;20634;-76
2022/10/23 06:12:47;;;;;;;0.10;0.10;;;11.30;99.90;10.50;97336.00;;;;5131642;27;20196;-77
2022/10/23 06:15:17;;;;;;;0.10;0.10;;;11.40;99.90;10.50;97332.00;;;;5110931;27;20197;-76
2022/10/23 06:18:11;;;;;;;0.10;0.10;;;11.40;99.90;10.60;97334.00;;;;5123266;27;20298;-77
2022/10/23 06:20:51;;;;;;;0.10;0.10;;;11.50;99.90;10.60;97334.00;;;;5113074;28;20638;-76
2022/10/23 06:23:25;;;;;;;0.10;0.10;;;11.50;99.90;10.60;97335.00;;;;5113187;28;20200;-76
2022/10/23 06:26:19;;;;;;;0.10;0.10;;;11.50;99.90;10.70;97349.00;;;;5109427;27;20217;-76
2022/10/23 06:29:20;;;;;;;0.10;0.10;;;11.60;99.90;10.70;97348.00;;;;5094150;27;20669;-76
2022/10/23 06:31:50;;;;;;;0.10;0.10;;;11.60;99.90;10.80;97345.00;;;;5107154;28;20235;-76
2022/10/23 06:34:18;;;;;;;0.10;0.10;;;11.70;99.90;10.80;97340.00;;;;5096776;28;20203;-75
2022/10/23 06:36:47;;;;;;;0.10;0.10;;;11.70;99.90;10.90;97334.00;;;;5111631;27;20303;-74
2022/10/23 06:39:44;;;;;;;0.10;0.10;;;11.80;99.90;11.00;97335.00;;;;5106594;27;20234;-74
2022/10/23 06:42:16;;;;;;;0.10;0.10;;;11.80;99.90;10.90;97348.00;;;;5129479;27;20191;-75
2022/10/23 06:44:56;;;;;;;0.10;0.10;;;11.80;99.90;11.00;97337.00;;;;5127964;27;20192;-74
2022/10/23 06:47:43;;;;;;;0.10;0.10;;;11.90;99.90;11.00;97327.00;;;;5116109;28;20227;-74
2022/10/23 06:50:31;;;;;;;0.10;0.10;;;11.90;99.90;11.00;97391.00;;;;5107305;28;20212;-74
2022/10/23 06:53:05;;;;;;;0.10;0.10;;;11.90;99.90;11.00;97354.00;;;;5127188;28;20220;-74
2022/10/23 06:55:38;;;;;;;0.10;0.10;;;11.90;99.90;11.10;97345.00;;;;5122881;27;20217;-74
2022/10/23 06:58:10;;;;;;;0.10;0.10;;;11.90;99.90;11.10;97343.00;;;;5131129;27;20283;-74
2022/10/23 07:00:53;;;;;;;0.10;0.10;;;12.00;99.90;11.20;97301.00;;;;5124013;27;20193;-74
2022/10/23 07:03:22;;;;;;;0.10;0.10;;;12.00;99.90;11.20;97293.00;;;;5116518;27;20186;-74
2022/10/23 07:05:50;;;;;;;0.10;0.10;;;12.10;99.90;11.20;97339.00;;;;5112496;27;20187;-74
2022/10/23 07:08:22;;;;;;;0.10;0.10;;;12.10;99.90;11.30;97351.00;;;;5107433;27;20213;-74
2022/10/23 07:10:53;;;;;;;0.08;0.08;;;12.10;99.90;11.40;97345.00;;;;5099208;28;20638;-74
2022/10/23 07:13:23;;;;;;;0.10;0.10;;;12.20;99.90;11.40;97346.00;;;;5126872;27;20200;-73
2022/10/23 07:15:58;;;;;;;0.10;0.10;;;12.20;99.90;11.40;97343.00;;;;5114109;27;20195;-74
2022/10/23 07:18:28;;;;;;;0.10;0.10;;;12.20;99.90;11.40;97337.00;;;;5106474;27;20217;-75
2022/10/23 07:21:19;;;;;;;0.08;0.08;;;12.30;99.90;11.50;97332.00;;;;5091917;27;20254;-74
2022/10/23 07:23:49;;;;;;;0.10;0.10;;;12.30;99.90;11.50;97340.00;;;;5103782;27;20199;-74
2022/10/23 07:26:19;;;;;;;0.00;0.00;;;12.40;99.90;11.60;97342.00;;;;5118161;27;20199;-74
2022/10/23 07:28:53;;;;;;;0.10;0.10;;;12.40;99.90;11.60;97284.00;;;;5107012;27;20308;-74
2022/10/23 07:31:25;;;;;;;0.10;0.10;;;12.50;99.90;11.70;97327.00;;;;5105650;28;20282;-74
2022/10/23 07:34:13;;;;;;;0.10;0.10;;;12.50;99.90;11.70;97332.00;;;;5104528;28;20208;-75
2022/10/23 07:36:43;;;;;;;0.10;0.10;;;12.60;99.90;11.80;97338.00;;;;5131302;27;20215;-75
2022/10/23 07:39:13;;;;;;;0.00;0.00;;;12.60;99.90;11.90;97338.00;;;;5114437;27;20307;-75
2022/10/23 07:41:48;;;;;;;0.10;0.10;;;12.70;99.90;11.90;97327.00;;;;5130395;27;20262;-75
2022/10/23 07:44:20;;;;;;;0.10;0.10;;;12.70;99.90;12.00;97327.00;;;;5118733;27;20261;-75
2022/10/23 07:46:56;;;;;;;0.10;0.10;;;12.80;99.90;12.00;97346.00;;;;5105864;27;20647;-75
2022/10/23 07:49:24;;;;;;;0.05;0.05;;;12.90;99.90;12.10;97332.00;;;;5121471;27;20207;-75
2022/10/23 07:51:52;;;;;;;0.10;0.10;;;12.90;99.90;12.10;97329.00;;;;5112880;27;20192;-74
2022/10/23 07:54:21;;;;;;;0.10;0.10;;;12.90;99.90;12.10;97327.00;;;;5095540;28;20626;-75
2022/10/23 07:57:01;;;;;;;0.10;0.10;;;13.00;99.90;12.20;97325.00;;;;5115821;27;20203;-75
2022/10/23 07:59:47;;;;;;;0.10;0.10;;;13.00;99.90;12.30;97330.00;;;;5106103;27;20226;-75
2022/10/23 08:02:20;;;;;;;0.10;0.10;;;13.10;99.90;12.30;97334.00;;;;5105479;27;20196;-75
2022/10/23 08:04:50;;;;;;;0.10;0.10;;;13.20;99.90;12.40;97318.00;;;;5105652;27;20291;-75
2022/10/23 08:07:34;;;;;;;0.10;0.10;;;13.20;99.90;12.50;97317.00;;;;5108971;27;20315;-74
2022/10/23 08:10:03;;;;;;;0.10;0.10;;;13.30;99.90;12.50;97274.00;;;;5105327;27;20193;-75
2022/10/23 08:12:32;;;;;;;0.00;0.00;;;13.30;99.90;12.50;97310.00;;;;5112625;27;20200;-75
2022/10/23 08:15:03;;;;;;;0.10;0.10;;;13.30;99.90;12.60;97310.00;;;;5122433;27;20197;-75
2022/10/23 08:17:41;;;;;;;0.10;0.10;;;13.40;99.90;12.60;97288.00;;;;5120566;27;20718;-74
2022/10/23 08:20:15;;;;;;;0.10;0.10;;;13.40;99.90;12.60;97292.00;;;;5106393;27;20740;-74
2022/10/23 08:22:45;;;;;;;0.10;0.10;;;13.40;99.90;12.60;97295.00;;;;5090462;28;20197;-75
2022/10/23 08:25:19;;;;;;;0.10;0.10;;;13.50;99.90;12.70;97296.00;;;;5109691;27;20252;-74
2022/10/23 08:27:53;;;;;;;0.10;0.10;;;13.50;99.90;12.70;97281.00;;;;5116446;27;20220;-74
2022/10/23 08:30:22;;;;;;;0.10;0.10;;;13.50;99.90;12.70;97280.00;;;;5111538;28;20272;-73
2022/10/23 08:32:51;;;;;;;0.10;0.10;;;13.50;99.90;12.80;97282.00;;;;5125906;27;20262;-75
2022/10/23 08:35:19;;;;;;;0.10;0.10;;;13.60;99.90;12.90;97272.00;;;;5114910;28;20188;-74
2022/10/23 08:37:47;;;;;;;0.10;0.10;;;13.70;99.90;13.00;97281.00;;;;5139684;27;20223;-74
2022/10/23 08:40:17;;;;;;;0.10;0.10;;;13.80;99.90;13.00;97265.00;;;;5138978;28;20215;-74
2022/10/23 08:43:18;;;;;;;0.10;0.10;;;13.80;99.90;13.10;97287.00;;;;5144729;28;20202;-74
2022/10/23 08:46:07;;;;;;;0.10;0.10;;;13.90;99.90;13.20;97285.00;;;;5140366;28;20192;-74
2022/10/23 08:49:08;;;;;;;0.10;0.10;;;14.00;99.90;13.20;97284.00;;;;5124284;28;20207;-74
2022/10/23 08:51:50;;;;;;;0.00;0.00;;;14.00;99.90;13.40;97293.00;;;;5121171;28;20254;-74
2022/10/23 08:54:25;;;;;;;0.00;0.00;;;14.10;99.90;13.40;97273.00;;;;5136438;28;20575;-74
2022/10/23 08:57:00;;;;;;;0.10;0.10;;;14.20;99.90;13.50;97281.00;;;;5110823;27;20219;-74
2022/10/23 08:59:38;;;;;;;0.10;0.10;;;14.20;99.90;13.50;97280.00;;;;5116137;28;20238;-74
2022/10/23 09:02:18;;;;;;;0.03;0.03;;;14.30;99.90;13.60;97291.00;;;;5126731;28;20198;-75
2022/10/23 09:04:50;;;;;;;0.10;0.10;;;14.30;99.90;13.50;97275.00;;;;5099701;27;20300;-74
2022/10/23 09:07:32;;;;;;;0.10;0.10;;;14.30;99.90;13.60;97275.00;;;;5117218;27;20718;-75
2022/10/23 09:10:30;;;;;;;0.10;0.10;;;14.30;99.90;13.50;97259.00;;;;5116758;28;20248;-74
2022/10/23 09:13:12;;;;;;;0.00;0.00;;;14.30;99.90;13.60;97249.00;;;;5129630;28;20244;-75
2022/10/23 09:15:47;;;;;;;0.00;0.00;;;14.30;99.90;13.60;97261.00;;;;5120163;28;20196;-74
2022/10/23 09:18:17;;;;;;;0.10;0.10;;;14.40;99.90;13.70;97262.00;;;;5113965;28;20261;-74
2022/10/23 09:20:47;;;;;;;0.00;0.00;;;14.40;99.90;13.70;97248.00;;;;5130866;28;20763;-74
2022/10/23 09:23:19;;;;;;;0.10;0.10;;;14.50;99.90;13.70;97252.00;;;;5113691;28;20238;-75
2022/10/23 09:25:54;;;;;;;0.00;0.00;;;14.50;99.90;13.70;97240.00;;;;5110530;28;20287;-74
2022/10/23 09:28:27;;;;;;;0.08;0.08;;;14.60;99.90;13.90;97253.00;;;;5113702;28;20216;-74
2022/10/23 09:31:07;;;;;;;0.10;0.10;;;14.60;99.90;13.90;97235.00;;;;5100926;28;20287;-74
2022/10/23 09:33:36;;;;;;;0.00;0.00;;;14.60;99.90;13.90;97258.00;;;;5096655;28;20185;-75
2022/10/23 09:36:09;;;;;;;0.00;0.00;;;14.60;99.90;14.00;97224.00;;;;5114152;27;20253;-74
2022/10/23 09:38:50;;;;;;;0.00;0.00;;;14.70;99.90;14.00;97257.00;;;;5118109;27;20224;-75
2022/10/23 09:41:22;;;;;;;0.00;0.00;;;14.80;99.90;14.10;97256.00;;;;5127569;27;20219;-74
2022/10/23 09:44:02;;;;;;;0.00;0.00;;;14.80;99.90;14.10;97247.00;;;;5126671;27;20682;-74
2022/10/23 09:46:41;;;;;;;0.00;0.00;;;14.80;99.90;14.10;97236.00;;;;5123924;27;20200;-75
2022/10/23 09:49:18;;;;;;;0.10;0.10;;;14.90;99.90;14.20;97230.00;;;;5117633;27;20197;-74
2022/10/23 09:52:00;;;;;;;0.08;0.08;;;14.90;99.90;14.30;97241.00;;;;5125151;27;20200;-73
2022/10/23 09:54:32;;;;;;;0.10;0.10;;;15.00;99.90;14.30;97243.00;;;;5118494;27;20736;-73
2022/10/23 09:57:15;;;;;;;0.00;0.00;;;15.10;99.90;14.40;97238.00;;;;5124345;27;20220;-74
2022/10/23 09:59:43;;;;;;;0.00;0.00;;;15.10;99.90;14.50;97252.00;;;;5134025;27;20199;-74
2022/10/23 10:02:27;;;;;;;0.00;0.00;;;15.20;99.90;14.50;97241.00;;;;5126267;27;20192;-74
2022/10/23 10:05:27;;;;;;;0.00;0.00;;;15.20;99.90;14.60;97254.00;;;;5093605;28;20204;-74
2022/10/23 10:08:05;;;;;;;0.10;0.10;;;15.30;99.90;14.50;97238.00;;;;5126240;27;20216;-74
2022/10/23 10:10:43;;;;;;;0.10;0.10;;;15.20;99.90;14.50;97233.00;;;;5110051;28;20543;-74
2022/10/23 10:13:45;;;;;;;0.00;0.00;;;15.20;99.90;14.60;97241.00;;;;5114830;27;20195;-74
2022/10/23 10:16:25;;;;;;;0.00;0.00;;;15.30;99.90;14.60;97212.00;;;;5123618;27;20274;-73
2022/10/23 10:19:03;;;;;;;0.10;0.10;;;15.30;99.90;14.80;97245.00;;;;5126019;27;20202;-74
2022/10/23 10:21:43;;;;;;;0.00;0.00;;;15.50;99.90;14.90;97233.00;;;;5133854;27;20279;-74
2022/10/23 10:24:22;;;;;;;0.10;0.10;;;15.60;99.90;15.00;97238.00;;;;5126909;27;20238;-76
2022/10/23 10:27:02;;;;;;;0.00;0.00;;;15.70;99.90;15.20;97253.00;;;;5129328;27;20285;-75
2022/10/23 10:29:58;;;;;;;0.05;0.05;;;15.80;99.90;15.30;97239.00;;;;5131525;27;20196;-75
2022/10/23 10:32:40;;;;;;;0.00;0.00;;;15.90;99.90;15.40;97243.00;;;;5135167;27;20192;-75
2022/10/23 10:35:25;;;;;;;0.00;0.00;;;16.00;99.90;15.30;97242.00;;;;5119198;27;20192;-75
2022/10/23 10:38:35;;;;;;;0.00;0.00;;;16.00;99.90;15.40;97233.00;;;;5126081;27;20288;-76
2022/10/23 10:41:26;;;;;;;0.00;0.00;;;16.10;99.90;15.50;97237.00;;;;5093835;28;20242;-76
2022/10/23 10:44:16;;;;;;;0.00;0.00;;;16.20;99.90;15.50;97223.00;;;;5102167;27;20222;-76
2022/10/23 10:46:54;;;;;;;0.00;0.00;;;16.20;99.90;15.60;97217.00;;;;5116050;27;20200;-75
2022/10/23 10:49:35;;;;;;;0.00;0.00;;;16.20;99.90;15.70;97223.00;;;;5116035;27;20195;-75
2022/10/23 10:52:37;;;;;;;0.08;0.08;;;16.30;99.90;15.80;97221.00;;;;5126449;27;20666;-75
2022/10/23 10:55:19;;;;;;;0.00;0.00;;;16.50;99.90;16.00;97233.00;;;;5115644;27;20188;-75
2022/10/23 10:57:55;;;;;;;0.00;0.00;;;16.60;99.90;16.10;97161.00;;;;5128987;27;20219;-75
2022/10/23 11:00:30;;;;;;;0.00;0.00;;;16.70;99.90;16.20;97232.00;;;;5128137;27;20198;-75
2022/10/23 11:03:09;;;;;;;0.00;0.00;;;16.80;99.90;16.40;97236.00;;;;5114635;27;20245;-75
2022/10/23 11:05:43;;;;;;;0.00;0.00;;;17.00;99.90;16.50;97206.00;;;;5113258;27;20207;-75
2022/10/23 11:08:19;;;;;;;0.00;0.00;;;17.10;99.90;16.70;97212.00;;;;5128537;27;20767;-75
2022/10/23 11:10:54;;;;;;;0.00;0.00;;;17.30;99.90;16.80;97194.00;;;;5133899;27;20191;-75
2022/10/23 11:13:30;;;;;;;0.00;0.00;;;17.40;99.90;17.00;97195.00;;;;5130326;27;20244;-75
2022/10/23 11:16:04;;;;;;;0.00;0.00;;;17.60;99.90;17.00;97188.00;;;;5116276;27;20232;-75
2022/10/23 11:18:34;;;;;;;0.00;0.00;;;17.70;99.90;17.20;97129.00;;;;5125276;27;20208;-75
2022/10/23 11:21:29;;;;;;;0.00;0.00;;;17.80;99.90;17.30;97190.00;;;;5134269;27;20215;-75
2022/10/23 11:24:48;;;;;;;0.00;0.00;;;17.90;99.90;17.30;97175.00;;;;5131581;27;20547;-75
2022/10/23 11:27:41;;;;;;;0.00;0.00;;;17.90;99.90;17.50;97179.00;;;;5121137;27;20255;-75
2022/10/23 11:30:23;;;;;;;0.00;0.00;;;18.10;99.90;17.80;97173.00;;;;5121258;27;20187;-75
2022/10/23 11:33:30;;;;;;;0.00;0.00;;;18.20;99.90;17.90;97173.00;;;;5130733;27;20195;-75
2022/10/23 11:36:13;;;;;;;0.00;0.00;;;18.40;99.90;18.00;97171.00;;;;5124354;27;20207;-76